Flight Track Log - Related Links

Times and Time Zones

All times are in EDT time to prevent confusion due to time zone crossing. See the N910GT flight status page for this flight to view local times or setup timezone preferences in your user account.

Time Position Orientation Groundspeed Altitude Reporting Facility
EDT Latitude Longitude Course Direction KTS MPH feet Rate Location/Type
Sun 08:53:01 PM 39.0833 -76.7500 142° Southeast 89 102 400  Level Potomac TRACON
Sun 08:54:01 PM 39.0667 -76.7333 142° Southeast 116 133 1,100 700 Climbing Potomac TRACON
Sun 08:55:01 PM 39.0667 -76.7667 270° West 148 170 1,800 450 Climbing Potomac TRACON
Sun 08:56:01 PM 39.0667 -76.8333 270° West 168 193 2,000 104 Climbing Potomac TRACON
Sun 08:56:56 PM 39.0833 -76.8833 293° West 174 200 2,000 157 Level Potomac TRACON
Sun 08:57:56 PM 39.1000 -76.9333 293° West 172 198 2,300 500 Climbing Potomac TRACON
Sun 08:58:56 PM 39.1333 -76.9833 311° West 155 178 3,000 350 Climbing Potomac TRACON
Sun 08:59:56 PM 39.1667 -77.0333 311° West 177 204 3,000  Level Potomac TRACON
Sun 09:00:56 PM 39.2000 -77.0667 322° Northwest 183 211 3,000  Level Potomac TRACON
Sun 09:01:56 PM 39.2333 -77.1000 322° Northwest 183 211 3,000 400 Level Potomac TRACON
Sun 09:02:56 PM 39.2833 -77.1333 333° Northwest 179 206 3,800 793 Climbing Potomac TRACON
Sun 09:03:57 PM 39.3167 -77.1333 360° North 162 186 4,600 793 Climbing Potomac TRACON
Sun 09:04:57 PM 39.3167 -77.1833 270° West 172 198 5,400 800 Climbing Potomac TRACON
Sun 09:05:57 PM 39.3333 -77.2333 293° West 133 153 6,200 850 Climbing Potomac TRACON
Sun 09:06:57 PM 39.3167 -77.2667 237° Southwest 111 128 7,100 850 Climbing Potomac TRACON
Sun 09:07:57 PM 39.3000 -77.3000 237° Southwest 106 122 7,900 450 Climbing Potomac TRACON
Sun 09:08:57 PM 39.3000 -77.3333 270° West 128 147 8,000 50 Climbing Potomac TRACON
Sun 09:09:57 PM 39.2833 -77.3833 247° West 141 162 8,000 -200 Level Potomac TRACON
Sun 09:10:57 PM 39.2667 -77.4333 247° West 155 178 7,600 -446 Descending Potomac TRACON
Sun 09:11:58 PM 39.2500 -77.4833 247° West 161 185 7,100 -298 Descending Potomac TRACON
Sun 09:12:58 PM 39.2333 -77.5333 247° West 149 171 7,000 -50 Descending Potomac TRACON
Sun 09:13:59 PM 39.2167 -77.5833 247° West 141 162 7,000 -149 Level Potomac TRACON
Sun 09:14:59 PM 39.2000 -77.6333 247° West 146 168 6,700 -400 Descending Potomac TRACON
Sun 09:15:59 PM 39.1667 -77.6833 229° Southwest 161 185 6,200 -331 Descending Potomac TRACON
Sun 09:17:06 PM 39.1500 -77.7333 247° West 155 178 6,000 -94 Descending Potomac TRACON
Sun 09:18:06 PM 39.1333 -77.7833 247° West 148 170 6,000  Level Potomac TRACON
Sun 09:19:07 PM 39.1167 -77.8333 247° West 145 167 6,000  Level Potomac TRACON
Sun 09:20:07 PM 39.1000 -77.8833 247° West 147 169 6,000  Level Potomac TRACON
Sun 09:21:14 PM 39.0867 -77.9317 250° West 165 190 6,000  Level Washington Center
Sun 09:22:12 PM 39.0689 -77.9792 244° Southwest 170 196 6,000  Level Washington Center
Sun 09:23:15 PM 39.0536 -78.0242 246° West 157 181 6,000  Level Washington Center
Sun 09:24:12 PM 39.0358 -78.0742 245° Southwest 157 181 6,000  Level Washington Center
Sun 09:25:13 PM 39.0181 -78.1217 244° Southwest 157 181 6,000  Level Washington Center
Sun 09:26:12 PM 39.0025 -78.1692 247° West 157 181 6,000  Level Washington Center
Sun 09:27:13 PM 38.9847 -78.2194 246° West 157 181 6,000  Level Washington Center
Sun 09:28:13 PM 38.9669 -78.2667 244° Southwest 157 181 6,000  Level Washington Center
Sun 09:29:12 PM 38.9514 -78.3142 247° West 157 181 6,000  Level Washington Center
Sun 09:30:14 PM 38.9336 -78.3617 244° Southwest 157 181 6,000  Level Washington Center
Sun 09:31:14 PM 38.9181 -78.4064 246° West 157 181 6,000  Level Washington Center
Sun 09:32:12 PM 38.9025 -78.4511 246° West 152 175 6,000  Level Washington Center
Sun 09:33:14 PM 38.8844 -78.5011 245° Southwest 152 175 6,000 248 Level Washington Center
Sun 09:34:13 PM 38.8689 -78.5431 245° Southwest 152 175 6,500 508 Climbing Washington Center
Sun 09:35:12 PM 38.8553 -78.5828 246° West 146 168 7,000 250 Climbing Washington Center
Sun 09:36:13 PM 38.8397 -78.6247 245° Southwest 140 161 7,000  Level Washington Center
Sun 09:37:14 PM 38.8239 -78.6692 245° Southwest 135 155 7,000  Level Washington Center
Sun 09:38:13 PM 38.8083 -78.7139 246° West 135 155 7,000  Level Washington Center
Sun 09:39:14 PM 38.8050 -78.7617 265° West 135 155 7,000  Level Washington Center
Sun 09:40:14 PM 38.8244 -78.8158 295° West 146 168 7,000  Level Washington Center
Sun 09:41:12 PM 38.8394 -78.8725 289° West 152 175 7,000  Level Washington Center
Sun 09:42:13 PM 38.8567 -78.9267 292° West 163 188 7,000  Level Washington Center
Sun 09:43:13 PM 38.8719 -78.9781 291° West 163 188 7,000  Level Washington Center
Sun 09:44:14 PM 38.8892 -79.0294 293° West 163 188 7,000 496 Level Washington Center
Sun 09:45:14 PM 38.9042 -79.0889 288° West 163 188 8,000 458 Climbing Washington Center
Sun 09:46:12 PM 38.9197 -79.1322 295° West 158 182 7,900  Descending Washington Center
Sun 09:47:13 PM 38.9350 -79.1811 292° West 152 175 8,000 -99 Climbing Washington Center
Sun 09:49:00 PM 38.9578 -79.2692 288° West  Level FlightAware Approximate
Sun 09:56:00 PM 39.0542 -79.6120 291° West  Level FlightAware Approximate
Sun 09:57:00 PM 39.0689 -79.6606 291° West  Level FlightAware Approximate
Sun 09:58:00 PM 39.0836 -79.7092 291° West  Level FlightAware Approximate
Sun 09:59:00 PM 39.0983 -79.7578 291° West  Level FlightAware Approximate
Sun 10:00:00 PM 39.1129 -79.8065 291° West  Level FlightAware Approximate
Sun 10:01:00 PM 39.1275 -79.8552 291° West  Level FlightAware Approximate
Sun 10:02:00 PM 39.1421 -79.9038 291° West  Level FlightAware Approximate
Sun 10:03:00 PM 39.1567 -79.9525 291° West  Level FlightAware Approximate
Sun 10:04:00 PM 39.1334 -79.9953 235° Southwest  Level Estimated
Sun 10:05:00 PM 39.1102 -80.0380 235° Southwest  Level Estimated
Sun 10:05:22 PM 38.9728 -80.1347 235° Southwest 148 170 6,000  Level Indianapolis Center
Sun 10:06:00 PM 39.0869 -80.0807 235° Southwest  Level Estimated
Sun 10:06:23 PM 38.9547 -80.1817 244° Southwest 147 169 6,000  Level Indianapolis Center
Sun 10:07:00 PM 39.0637 -80.1234 235° Southwest  Level Estimated
Sun 10:07:24 PM 38.9372 -80.2275 244° Southwest 144 166 6,000  Level Indianapolis Center
Sun 10:08:00 PM 39.0405 -80.1659 235° Southwest  Level Estimated
Sun 10:08:25 PM 38.9206 -80.2728 245° Southwest 143 165 6,000  Level Indianapolis Center
Sun 10:09:00 PM 39.0172 -80.2085 235° Southwest  Level Estimated
Sun 10:09:26 PM 38.9031 -80.3178 243° Southwest 141 162 6,000  Level Indianapolis Center
Sun 10:10:00 PM 38.9939 -80.2511 235° Southwest  Level Estimated
Sun 10:10:27 PM 38.8853 -80.3642 244° Southwest 143 165 6,000  Level Indianapolis Center
Sun 10:11:28 PM 38.8692 -80.4111 246° West 143 165 6,000  Level Indianapolis Center
Sun 10:12:29 PM 38.8531 -80.4569 246° West 142 163 6,000  Level Indianapolis Center
Sun 10:13:30 PM 38.8358 -80.5042 245° Southwest 144 166 6,000  Level Indianapolis Center
Sun 10:14:31 PM 38.8139 -80.5575 242° Southwest 142 163 6,000  Level Indianapolis Center
Sun 10:15:32 PM 38.7972 -80.6044 246° West 143 165 6,000  Level Indianapolis Center
Sun 10:16:33 PM 38.7797 -80.6500 244° Southwest 143 165 6,000  Level Indianapolis Center
Sun 10:17:34 PM 38.7622 -80.6964 244° Southwest 144 166 6,000 49 Level Indianapolis Center
Sun 10:18:35 PM 38.7450 -80.7419 244° Southwest 143 165 6,100  Climbing Indianapolis Center
Sun 10:19:36 PM 38.7283 -80.7878 245° Southwest 143 165 6,000 -49 Descending Indianapolis Center
Sun 10:20:37 PM 38.7106 -80.8322 243° Southwest 141 162 6,000 347 Level Indianapolis Center
Sun 10:21:37 PM 38.6947 -80.8706 242° Southwest 130 150 6,700 744 Climbing Indianapolis Center
Sun 10:22:38 PM 38.6817 -80.9039 243° Southwest 112 129 7,500 639 Climbing Indianapolis Center
Sun 10:23:39 PM 38.6692 -80.9364 244° Southwest 104 120 8,000 246 Climbing Indianapolis Center
Sun 10:24:40 PM 38.6542 -80.9811 247° West 133 153 8,000  Level Indianapolis Center
Sun 10:25:41 PM 38.6439 -81.0292 255° West 144 166 8,000  Level Indianapolis Center
Sun 10:26:42 PM 38.6311 -81.0781 252° West 145 167 8,000  Level Indianapolis Center
Sun 10:27:43 PM 38.6119 -81.1233 242° Southwest 144 166 8,000  Level Indianapolis Center
Sun 10:28:44 PM 38.5942 -81.1706 244° Southwest 146 168 8,000  Level Indianapolis Center
Sun 10:29:45 PM 38.5706 -81.2108 233° Southwest 142 163 8,000 -246 Level Indianapolis Center
Sun 10:30:46 PM 38.5486 -81.2572 239° Southwest 150 173 7,500 -492 Descending Indianapolis Center
Sun 10:31:47 PM 38.5286 -81.3094 244° Southwest 161 185 7,000 -496 Descending Indianapolis Center
Sun 10:32:47 PM 38.5089 -81.3625 245° Southwest 164 189 6,500 -496 Descending Indianapolis Center
Sun 10:33:48 PM 38.4897 -81.4139 245° Southwest 161 185 6,000 -246 Descending Indianapolis Center
Sun 10:34:49 PM 38.4667 -81.4708 243° Southwest 151 174 6,000  Level Indianapolis Center
Sun 10:35:50 PM 38.4492 -81.5156 243° Southwest 143 165 6,000  Level Indianapolis Center
Sun 10:36:51 PM 38.4317 -81.5608 244° Southwest 142 163 6,000  Level Indianapolis Center
Sun 10:37:52 PM 38.4136 -81.6064 243° Southwest 142 163 6,000  Level Indianapolis Center
Sun 10:38:53 PM 38.3964 -81.6517 244° Southwest 142 163 6,000  Level Indianapolis Center
Sun 10:39:53 PM 38.3786 -81.6972 244° Southwest 142 163 6,000  Level Indianapolis Center
Sun 10:40:54 PM 38.3608 -81.7431 244° Southwest 144 166 6,000  Level Indianapolis Center
Sun 10:41:55 PM 38.3411 -81.7858 240° Southwest 141 162 6,000  Level Indianapolis Center
Sun 10:42:56 PM 38.3161 -81.8242 230° Southwest 140 161 6,000  Level Indianapolis Center
Sun 10:43:57 PM 38.2903 -81.8622 229° Southwest 141 162 6,000  Level Indianapolis Center
Sun 10:44:58 PM 38.2653 -81.9017 231° Southwest 142 163 6,000  Level Indianapolis Center
Sun 10:45:58 PM 38.2397 -81.9411 230° Southwest 144 166 6,000  Level Indianapolis Center
Sun 10:46:59 PM 38.2139 -81.9806 230° Southwest 144 166 6,000  Level Indianapolis Center
Sun 10:48:00 PM 38.1889 -82.0197 231° Southwest 144 166 6,000  Level Indianapolis Center
Sun 10:49:01 PM 38.1633 -82.0581 230° Southwest 143 165 6,000  Level Indianapolis Center
Sun 10:50:02 PM 38.1389 -82.0967 231° Southwest 141 162 6,000  Level Indianapolis Center
Sun 10:51:02 PM 38.1125 -82.1358 229° Southwest 144 166 6,000 298 Level Indianapolis Center
Sun 10:52:03 PM 38.0856 -82.1789 232° Southwest 140 161 6,600 590 Climbing Indianapolis Center
Sun 10:53:04 PM 38.0633 -82.2100 228° Southwest 123 142 7,200 541 Climbing Indianapolis Center
Sun 10:54:05 PM 38.0400 -82.2439 229° Southwest 126 145 7,700 397 Climbing Indianapolis Center
Sun 10:55:05 PM 38.0161 -82.2814 231° Southwest 133 153 8,000 149 Climbing Indianapolis Center
Sun 10:56:06 PM 37.9900 -82.3222 231° Southwest 145 167 8,000  Level Indianapolis Center
Sun 10:57:07 PM 37.9614 -82.3661 230° Southwest 157 181 8,000  Level Indianapolis Center
Sun 10:58:08 PM 37.9344 -82.4069 230° Southwest 154 177 8,000 50 Level Indianapolis Center
Sun 10:59:08 PM 37.9078 -82.4478 230° Southwest 151 174 8,100 545 Climbing Indianapolis Center
Sun 11:00:09 PM 37.8839 -82.4839 230° Southwest 138 159 9,100 934 Climbing Indianapolis Center
Sun 11:01:10 PM 37.8628 -82.5125 227° Southwest 118 136 10,000 443 Climbing Indianapolis Center
Sun 11:02:11 PM 37.8375 -82.5517 231° Southwest 139 160 10,000  Level Indianapolis Center
Sun 11:03:11 PM 37.8092 -82.5964 231° Southwest 158 182 10,000  Level Indianapolis Center
Sun 11:04:12 PM 37.7764 -82.6467 230° Southwest 160 184 10,000  Level Indianapolis Center
Sun 11:05:13 PM 37.7481 -82.6889 230° Southwest 158 182 10,000  Level Indianapolis Center
Sun 11:06:14 PM 37.7206 -82.7325 231° Southwest 157 181 10,000  Level Indianapolis Center
Sun 11:07:15 PM 37.6922 -82.7742 229° Southwest 157 181 10,000  Level Indianapolis Center
Sun 11:08:15 PM 37.6636 -82.8167 230° Southwest 158 182 10,000  Level Indianapolis Center
Sun 11:09:16 PM 37.6353 -82.8589 230° Southwest 158 182 10,000  Level Indianapolis Center
Sun 11:10:17 PM 37.6072 -82.9028 231° Southwest 160 184 10,000  Level Indianapolis Center
Sun 11:11:18 PM 37.5789 -82.9450 230° Southwest 158 182 10,000  Level Indianapolis Center
Sun 11:12:18 PM 37.5500 -82.9869 229° Southwest 159 183 10,000  Level Indianapolis Center
Sun 11:13:19 PM 37.5211 -83.0297 230° Southwest 160 184 10,000  Level Indianapolis Center
Sun 11:14:20 PM 37.4933 -83.0731 231° Southwest 160 184 10,000  Level Indianapolis Center
Sun 11:15:20 PM 37.4642 -83.1158 229° Southwest 161 185 10,000  Level Indianapolis Center
Sun 11:16:21 PM 37.4356 -83.1592 230° Southwest 161 185 10,000  Level Indianapolis Center
Sun 11:17:22 PM 37.4064 -83.2028 230° Southwest 163 188 10,000  Level Indianapolis Center
Sun 11:18:23 PM 37.3769 -83.2453 229° Southwest 161 185 10,000 -50 Level Indianapolis Center
Sun 11:19:23 PM 37.3422 -83.2967 230° Southwest 164 189 9,900 -298 Descending Indianapolis Center
Sun 11:20:24 PM 37.3108 -83.3428 229° Southwest 173 199 9,400 -492 Descending Indianapolis Center
Sun 11:21:25 PM 37.2789 -83.3908 230° Southwest 178 205 8,900 -492 Descending Indianapolis Center
Sun 11:22:26 PM 37.2481 -83.4381 231° Southwest 176 203 8,400 -843 Descending Indianapolis Center
Sun 11:23:26 PM 37.2156 -83.4853 229° Southwest 176 203 7,200 -1,190 Descending Indianapolis Center
Sun 11:24:27 PM 37.1819 -83.5350 230° Southwest 181 208 6,000 -590 Descending Indianapolis Center
Sun 11:25:28 PM 37.1503 -83.5808 229° Southwest 180 207 6,000  Level Indianapolis Center
Sun 11:26:28 PM 37.1217 -83.6217 229° Southwest 169 194 6,000  Level Indianapolis Center
Sun 11:27:29 PM 37.0939 -83.6625 230° Southwest 160 184 6,000  Level Indianapolis Center
Sun 11:28:30 PM 37.0661 -83.7042 230° Southwest 157 181 6,000  Level Indianapolis Center
Sun 11:29:30 PM 37.0389 -83.7453 230° Southwest 155 178 6,000  Level Indianapolis Center
Sun 11:30:31 PM 37.0114 -83.7850 229° Southwest 153 176 6,000  Level Indianapolis Center
Sun 11:31:32 PM 36.9847 -83.8269 231° Southwest 153 176 6,000  Level Indianapolis Center
Sun 11:32:32 PM 36.9572 -83.8667 229° Southwest 152 175 6,000 -50 Level Indianapolis Center
Sun 11:33:33 PM 36.9297 -83.9083 230° Southwest 154 177 5,900 -49 Descending Indianapolis Center
Sun 11:34:34 PM 36.9022 -83.9497 230° Southwest 154 177 5,900  Level Indianapolis Center
Sun 11:35:34 PM 36.8758 -83.9883 229° Southwest 149 171 5,900  Level Indianapolis Center
Sun 11:36:35 PM 36.8481 -84.0281 229° Southwest 150 173 5,900  Level Indianapolis Center
Sun 11:37:35 PM 36.8178 -84.0753 231° Southwest 150 173 5,900  Level Indianapolis Center
Sun 11:38:36 PM 36.7917 -84.1147 230° Southwest 149 171 5,900  Level Indianapolis Center
Sun 11:39:37 PM 36.7653 -84.1522 229° Southwest 145 167 5,900  Level Indianapolis Center
Sun 11:40:37 PM 36.7450 -84.1814 229° Southwest 119 137 5,900  Level Indianapolis Center
Sun 11:41:38 PM 36.7264 -84.2083 229° Southwest 105 121 5,900 50 Level Indianapolis Center
Sun 11:42:38 PM 36.7100 -84.2333 231° Southwest 96 110 6,000  Climbing Indianapolis Center
Sun 11:43:39 PM 36.6919 -84.2625 232° Southwest 103 119 5,900 -248 Descending Indianapolis Center
Sun 11:44:39 PM 36.6711 -84.2953 232° Southwest 117 135 5,500 -347 Descending Indianapolis Center
Sun 11:45:40 PM 36.6475 -84.3272 227° Southwest 122 140 5,200 -347 Descending Indianapolis Center
Sun 11:46:40 PM 36.6250 -84.3600 229° Southwest 124 143 4,800 -397 Descending Indianapolis Center
Sun 11:47:41 PM 36.6036 -84.3914 230° Southwest 121 139 4,400 -197 Descending Indianapolis Center
Sun 11:48:42 PM 36.5789 -84.4208 224° Southwest 122 140 4,400  Level Indianapolis Center
Sun 11:49:42 PM 36.5631 -84.4447 230° Southwest 100 115 4,400 -248 Level Indianapolis Center
Sun 11:50:43 PM 36.5439 -84.4697 226° Southwest 98 113 3,900 -545 Descending Indianapolis Center
Sun 11:51:43 PM 36.5231 -84.4983 228° Southwest 105 121 3,300 -595 Descending Indianapolis Center
Sun 11:52:44 PM 36.5008 -84.5250 224° Southwest 107 123 2,700 -645 Descending Indianapolis Center
Sun 11:53:44 PM 36.4786 -84.5547 227° Southwest 112 129 2,000 -550 Descending Indianapolis Center
Sun 11:54:44 PM 36.4606 -84.5800 228° Southwest 108 124 1,600 -400 Descending Indianapolis Center
Sun 11:56:00 PM 36.4500 -84.5833 229° Southwest  Level FlightAware Approximate

Login

Don't have an account? Register now (free) for customized features, flight alerts, and more!